KSGR

Sugar Land Regional Airport

Houston, Texas, USA
KSGR 232337Z 2400/2424 03010KT P6SM FEW035 OVC110 FM241000 03009KT P6SM OVC025 FM241200 04011KT P6SM OVC015 FM241700 06012KT 6SM -RA VCSH OVC012 FM242000 06013KT 5SM RA OVC010
Issued Valid From Valid To
Oct-23 @ 23:37 UTC
(6 hours ago)
Oct-24 @ 00:00 UTC
(5 hours ago)
Oct-25 @ 00:00 UTC
(in 19 hours)
Oct-24 @ 00:00 to Oct-24 @ 10:00
KSGR 232337Z 2400/2424 03010KT P6SM FEW035 OVC110
Wind Visibility Clouds
30° at 10 knots Greater than 6 miles
  • Few at 3,500' AGL
  • Overcast at 11,000' AGL
From Oct-24 @ 10:00 to Oct-24 @ 12:00
FM241000 03009KT P6SM OVC025
Wind Visibility Clouds
30° at 9 knots Greater than 6 miles
  • Overcast at 2,500' AGL
From Oct-24 @ 12:00 to Oct-24 @ 17:00
FM241200 04011KT P6SM OVC015
Wind Visibility Clouds
40° at 11 knots Greater than 6 miles
  • Overcast at 1,500' AGL
From Oct-24 @ 17:00 to Oct-24 @ 20:00
FM241700 06012KT 6SM -RA VCSH OVC012
Wind Visibility Clouds Conditions
60° at 12 knots 6 miles
  • Overcast at 1,200' AGL
  • Light Rain
From Oct-24 @ 20:00 to Oct-25 @ 00:00
FM242000 06013KT 5SM RA OVC010
Wind Visibility Clouds Conditions
60° at 13 knots 5 miles
  • Overcast at 1,000' AGL
  • Rain
KSGR 232337Z 2400/2424 03010KT P6SM FEW035 OVC110 FM241000 03009KT P6SM OVC025 FM241200 04011KT P6SM OVC015 FM241700 06012KT 6SM -RA VCSH OVC012 FM242000 06013KT 5SM RA OVC010
Issued Oct-23 @ 23:37 UTC
(6 hours ago)
Valid From Oct-24 @ 00:00 UTC
(5 hours ago)
Valid To Oct-25 @ 00:00 UTC
(in 19 hours)
Oct-24 @ 00:00 - Oct-24 @ 10:00
Wind Visibility
30° at 10 knots Greater than 6 miles
Clouds
  • Few at 3,500' AGL
  • Overcast at 11,000' AGL
From Oct-24 @ 10:00 - Oct-24 @ 12:00
Wind Visibility
30° at 9 knots Greater than 6 miles
Clouds
  • Overcast at 2,500' AGL
From Oct-24 @ 12:00 - Oct-24 @ 17:00
Wind Visibility
40° at 11 knots Greater than 6 miles
Clouds
  • Overcast at 1,500' AGL
From Oct-24 @ 17:00 - Oct-24 @ 20:00
Wind Visibility
60° at 12 knots 6 miles
Clouds
  • Overcast at 1,200' AGL
Conditions
  • Light Rain
From Oct-24 @ 20:00 - Oct-25 @ 00:00
Wind Visibility
60° at 13 knots 5 miles
Clouds
  • Overcast at 1,000' AGL
Conditions
  • Rain